La Guadeloupe, Canada
Current Conditions -  °F | °C
As of 4:00 AM on Sunday 21 Dec 2014 (Local Time) from CYSC Reporting Station
Haze Haze  
Wind Chill: 10°   Ceiling: 200
Heat Index: 10°   Visibility: 4mi
Dew Point:   Wind: 3mph
Humidity: 92%   Direction: 130°SE
Pressure: 30.31"   Gusts: NA
Location:  45.97°N, 70.95°W
Report Text: CYSC 210900Z AUTO 13003KT 4SM BR OVC002 M12/M13 A3031 RMK SLP282
Loading
Personal Weather Stations






























Interactive Weather Map New forecast layout! Learn more

10-Day Weather Forecast

Advertisements
Track Severe Weather on mobile